Time;durP1;ratioP1;P1;durP2;ratioP2;P2;SDS_P1;SDS_P2;PMS_P1;PMS_P2;Temp;Humidity;BMP_temperature;BMP_pressure;BME280_temperature;BME280_humidity;BME280_pressure;Samples;Min_cycle;Max_cycle;Signal;HPM_P1;HPM_P2
2022/08/29 00:02:09;;;;;;;68.50;41.28;;;;;;;19.67;49.10;99699.47;4781795;29;20070;-79
2022/08/29 00:04:35;;;;;;;65.30;41.20;;;;;;;19.59;49.41;99689.28;4793861;29;20050;-79
2022/08/29 00:07:01;;;;;;;61.35;37.05;;;;;;;19.62;49.29;99685.63;4773069;29;20420;-80
2022/08/29 00:09:27;;;;;;;60.80;37.33;;;;;;;19.56;49.69;99687.63;4750089;29;20622;-79
2022/08/29 00:11:53;;;;;;;55.60;35.40;;;;;;;19.52;50.01;99672.91;4773455;29;20051;-81
2022/08/29 00:14:19;;;;;;;65.90;36.85;;;;;;;19.49;49.94;99674.81;4769803;29;20100;-82
2022/08/29 00:16:45;;;;;;;64.50;38.08;;;;;;;19.53;49.96;99671.94;4766352;29;20111;-79
2022/08/29 00:19:11;;;;;;;60.15;37.63;;;;;;;19.48;49.96;99655.50;4767376;29;20059;-80
2022/08/29 00:21:37;;;;;;;66.38;40.30;;;;;;;19.64;50.39;99675.84;4785250;29;20051;-80
2022/08/29 00:24:03;;;;;;;57.33;38.95;;;;;;;19.67;50.76;99673.06;4775417;29;20042;-79
2022/08/29 00:26:29;;;;;;;75.53;41.58;;;;;;;19.66;50.73;99658.16;4772178;29;20051;-80
2022/08/29 00:28:55;;;;;;;59.97;38.40;;;;;;;19.53;50.73;99632.34;4785744;29;20050;-82
2022/08/29 00:31:22;;;;;;;64.00;39.53;;;;;;;19.62;50.82;99652.19;4785445;29;20063;-80
2022/08/29 00:33:50;;;;;;;63.55;37.50;;;;;;;19.48;50.70;99626.47;4773091;29;20055;-78
2022/08/29 00:36:16;;;;;;;56.20;35.30;;;;;;;19.62;51.14;99646.03;4771920;29;20047;-80
2022/08/29 00:38:41;;;;;;;53.33;36.42;;;;;;;19.67;50.79;99644.03;4785538;29;20484;-81
2022/08/29 00:41:07;;;;;;;56.78;37.40;;;;;;;19.61;51.06;99620.59;4784597;29;20100;-80
2022/08/29 00:43:36;;;;;;;58.80;37.47;;;;;;;19.74;50.51;99634.91;4772425;29;20051;-80
2022/08/29 00:46:33;;;;;;;59.55;35.72;;;;;;;19.74;51.06;99634.91;4765416;29;20043;-79
2022/08/29 00:49:10;;;;;;;54.67;35.00;;;;;;;19.69;50.99;99626.34;4760288;29;20468;-80
2022/08/29 00:51:37;;;;;;;60.38;37.15;;;;;;;19.69;50.92;99626.34;4766798;29;20043;-79
2022/08/29 00:54:08;;;;;;;61.42;37.55;;;;;;;19.62;51.20;99619.66;4756071;29;20051;-79
2022/08/29 00:56:36;;;;;;;60.55;36.92;;;;;;;19.60;51.15;99622.38;4786319;29;20130;-80
2022/08/29 00:59:12;;;;;;;59.63;38.22;;;;;;;19.60;51.22;99613.59;4770321;29;20047;-82
2022/08/29 01:01:39;;;;;;;54.90;37.55;;;;;;;19.56;51.65;99605.81;4769627;29;20063;-80
2022/08/29 01:04:05;;;;;;;56.53;36.83;;;;;;;19.45;51.58;99591.44;4749428;29;20047;-80
2022/08/29 01:06:33;;;;;;;59.97;36.47;;;;;;;19.52;51.46;99604.28;4782013;29;20100;-80
2022/08/29 01:08:59;;;;;;;51.40;36.03;;;;;;;19.51;51.63;99594.66;4776399;29;20048;-78
2022/08/29 01:14:15;;;;;;;59.92;35.97;;;;;;;19.52;51.30;99591.09;4783581;29;20051;-79
2022/08/29 01:16:41;;;;;;;54.20;34.85;;;;;;;19.50;51.49;99582.41;4779586;29;20054;-79
2022/08/29 01:19:28;;;;;;;54.28;35.80;;;;;;;19.49;51.42;99583.31;4801275;29;20047;-79
2022/08/29 01:22:19;;;;;;;58.60;36.55;;;;;;;19.50;51.33;99579.75;4794124;29;20047;-80
2022/08/29 01:24:49;;;;;;;55.78;35.35;;;;;;;19.49;51.37;99580.69;4774128;29;20578;-79
2022/08/29 01:27:19;;;;;;;52.67;34.70;;;;;;;19.43;51.19;99565.16;4766921;29;20039;-77
2022/08/29 01:29:46;;;;;;;52.72;34.60;;;;;;;19.48;51.38;99571.06;4800613;29;20100;-78
2022/08/29 01:32:13;;;;;;;53.55;34.50;;;;;;;19.51;51.37;99565.66;4772921;29;20116;-78
2022/08/29 01:34:40;;;;;;;49.83;33.20;;;;;;;19.51;51.04;99559.50;4784064;29;20050;-79
2022/08/29 01:37:09;;;;;;;49.70;33.10;;;;;;;19.53;51.04;99565.56;4789245;29;20653;-80
2022/08/29 01:39:39;;;;;;;52.72;32.85;;;;;;;19.54;50.93;99576.00;4804616;29;20051;-81
2022/08/29 01:42:09;;;;;;;53.35;31.55;;;;;;;19.47;50.87;99542.97;4780268;29;20068;-80
2022/08/29 01:44:36;;;;;;;45.33;30.02;;;;;;;19.52;50.67;99540.97;4786184;29;20497;-79
2022/08/29 01:47:03;;;;;;;48.55;30.77;;;;;;;19.61;50.93;99554.59;4787895;29;20049;-81
2022/08/29 01:49:32;;;;;;;43.25;30.70;;;;;;;19.61;50.99;99554.59;4794758;29;20413;-80
2022/08/29 01:51:58;;;;;;;43.88;29.58;;;;;;;19.53;50.78;99526.81;4768943;29;20047;-78
2022/08/29 01:54:24;;;;;;;46.03;31.17;;;;;;;19.60;50.72;99532.66;4770093;29;20089;-78
2022/08/29 01:56:52;;;;;;;50.35;30.90;;;;;;;19.68;50.67;99548.09;4769099;29;20043;-80
2022/08/29 01:59:22;;;;;;;45.25;30.67;;;;;;;19.65;50.64;99537.69;4785848;29;20055;-79
2022/08/29 02:01:57;;;;;;;46.00;31.07;;;;;;;19.52;50.55;99518.97;4783062;29;20524;-79
2022/08/29 02:04:23;;;;;;;44.58;29.33;;;;;;;19.60;50.74;99526.50;4771840;29;20043;-79
2022/08/29 02:06:49;;;;;;;40.80;28.38;;;;;;;19.39;50.58;99509.06;4769436;29;20107;-79
2022/08/29 02:09:16;;;;;;;43.80;27.30;;;;;;;19.51;50.83;99538.38;4770705;29;20043;-79
2022/08/29 02:11:44;;;;;;;41.60;27.50;;;;;;;19.48;50.77;99539.41;4782634;29;20055;-78
2022/08/29 02:14:11;;;;;;;39.35;25.73;;;;;;;19.44;50.53;99500.91;4775142;29;20051;-81
2022/08/29 02:16:37;;;;;;;38.25;26.23;;;;;;;19.46;50.70;99499.06;4784080;29;20103;-79
2022/08/29 02:19:03;;;;;;;40.58;26.95;;;;;;;19.47;50.86;99515.72;4768797;29;20134;-79
2022/08/29 02:21:30;;;;;;;44.13;28.40;;;;;;;19.48;50.76;99539.41;4767883;29;20043;-81
2022/08/29 02:23:59;;;;;;;45.08;27.20;;;;;;;19.39;50.54;99497.66;4772842;29;20047;-80
2022/08/29 02:26:24;;;;;;;47.90;30.65;;;;;;;19.46;50.60;99550.94;4767708;29;20108;-81
2022/08/29 02:28:51;;;;;;;41.88;27.05;;;;;;;19.36;50.87;99532.09;4766681;29;20089;-80
2022/08/29 02:31:19;;;;;;;47.65;28.77;;;;;;;19.39;50.81;99539.84;4769622;29;20079;-77
2022/08/29 02:33:47;;;;;;;37.78;26.40;;;;;;;19.41;50.91;99522.16;4755069;29;20047;-80
2022/08/29 02:36:13;;;;;;;41.33;27.95;;;;;;;19.53;50.63;99532.09;4759678;29;20092;-80
2022/08/29 02:38:40;;;;;;;43.45;27.83;;;;;;;19.53;50.72;99513.63;4782583;29;20630;-77
2022/08/29 02:41:06;;;;;;;37.70;27.05;;;;;;;19.65;50.46;99524.50;4765033;29;20082;-80
2022/08/29 02:43:32;;;;;;;42.67;24.88;;;;;;;19.65;50.15;99504.22;4782185;29;20047;-79
2022/08/29 02:46:00;;;;;;;38.35;25.90;;;;;;;19.70;49.96;99504.84;4781990;29;20444;-81
2022/08/29 02:48:26;;;;;;;41.33;25.52;;;;;;;19.69;50.14;99511.06;4784895;29;20513;-81
2022/08/29 02:50:55;;;;;;;37.60;23.80;;;;;;;19.68;50.00;99503.22;4790668;29;20132;-79
2022/08/29 02:53:24;;;;;;;42.47;23.00;;;;;;;19.69;49.87;99511.06;4766957;29;20443;-80
2022/08/29 02:55:53;;;;;;;33.30;22.13;;;;;;;19.69;49.74;99510.22;4767221;29;20047;-80
2022/08/29 02:58:21;;;;;;;38.40;22.08;;;;;;;19.70;49.58;99501.38;4769222;29;20105;-78
2022/08/29 03:00:48;;;;;;;33.13;21.60;;;;;;;19.67;49.77;99501.53;4768163;29;20055;-79
2022/08/29 03:03:14;;;;;;;34.40;21.60;;;;;;;19.63;49.72;99506.13;4782230;29;20150;-77
2022/08/29 03:05:40;;;;;;;29.92;21.42;;;;;;;19.64;49.63;99496.41;4778973;29;20047;-79
2022/08/29 03:08:09;;;;;;;36.55;21.20;;;;;;;19.71;49.68;99497.81;4792980;29;21455;-79
2022/08/29 03:10:36;;;;;;;30.83;20.33;;;;;;;19.64;49.42;99491.97;4789804;29;20047;-79
2022/08/29 03:13:03;;;;;;;30.63;19.35;;;;;;;19.71;49.53;99505.72;4789367;29;20055;-79
2022/08/29 03:15:29;;;;;;;31.58;19.95;;;;;;;19.65;49.42;99506.03;4786605;29;20112;-79
2022/08/29 03:17:55;;;;;;;33.13;20.25;;;;;;;19.68;49.42;99509.34;4787408;29;20423;-80
2022/08/29 03:20:23;;;;;;;27.95;19.98;;;;;;;19.78;49.58;99503.59;4790443;29;20075;-78
2022/08/29 03:22:51;;;;;;;30.23;19.02;;;;;;;19.80;49.54;99486.75;4758821;30;20470;-79
2022/08/29 03:25:17;;;;;;;29.08;18.23;;;;;;;19.83;49.28;99475.19;4773598;29;20408;-80
2022/08/29 03:27:43;;;;;;;27.35;19.52;;;;;;;20.01;49.25;99490.09;4790885;29;20119;-79
2022/08/29 03:30:13;;;;;;;27.20;18.55;;;;;;;19.97;49.01;99496.47;4774510;29;20040;-80
2022/08/29 03:32:39;;;;;;;30.85;18.48;;;;;;;20.07;48.73;99499.47;4773336;30;20050;-79
2022/08/29 03:35:07;;;;;;;29.73;19.77;;;;;;;20.02;48.82;99494.44;4790876;29;20104;-79
2022/08/29 03:37:34;;;;;;;28.52;18.88;;;;;;;20.09;48.92;99512.56;4769756;30;20055;-79
2022/08/29 03:40:00;;;;;;;32.00;19.95;;;;;;;19.99;49.36;99485.81;4771744;30;20043;-79
2022/08/29 03:42:28;;;;;;;32.20;19.90;;;;;;;20.09;49.28;99481.75;4774420;29;20462;-80
2022/08/29 03:44:53;;;;;;;31.05;19.83;;;;;;;20.04;48.97;99457.38;4788672;29;20039;-79
2022/08/29 03:47:20;;;;;;;31.08;19.88;;;;;;;20.19;49.15;99466.25;4770458;29;20051;-80
2022/08/29 03:49:46;;;;;;;32.10;20.02;;;;;;;20.22;49.02;99452.91;4776083;29;20051;-80
2022/08/29 03:52:12;;;;;;;33.15;19.85;;;;;;;20.43;48.86;99457.94;4791869;29;20039;-82
2022/08/29 03:54:38;;;;;;;36.25;20.73;;;;;;;20.52;48.63;99462.72;4779727;29;20524;-80
2022/08/29 03:57:05;;;;;;;31.60;19.90;;;;;;;20.61;48.73;99453.44;4761971;30;20543;-78
2022/08/29 03:59:32;;;;;;;29.00;20.83;;;;;;;20.66;48.28;99450.50;4755890;29;20130;-77
2022/08/29 04:01:58;;;;;;;27.30;20.10;;;;;;;20.69;48.19;99437.97;4770855;29;20065;-79
2022/08/29 04:07:12;;;;;;;31.27;19.02;;;;;;;20.80;48.12;99396.88;4785909;29;20078;-79
2022/08/29 04:09:40;;;;;;;25.90;17.88;;;;;;;20.95;47.99;99405.72;4775201;29;20054;-79
2022/08/29 04:12:07;;;;;;;24.55;17.13;;;;;;;21.04;47.84;99400.75;4756373;29;20547;-78
2022/08/29 04:14:34;;;;;;;27.25;17.08;;;;;;;21.21;47.89;99409.47;4787048;29;20043;-78
2022/08/29 04:17:00;;;;;;;31.30;16.58;;;;;;;21.43;47.07;99406.38;4785096;29;20140;-79
2022/08/29 04:19:26;;;;;;;22.35;15.63;;;;;;;21.52;47.27;99410.25;4785668;29;20752;-79
2022/08/29 04:21:52;;;;;;;23.33;16.33;;;;;;;21.73;47.04;99423.19;4784355;29;20076;-79
2022/08/29 04:24:19;;;;;;;23.17;15.52;;;;;;;21.86;46.53;99402.94;4768667;29;20055;-80
2022/08/29 04:26:45;;;;;;;25.45;15.77;;;;;;;22.09;46.75;99395.34;4773198;29;20055;-80
2022/08/29 04:29:12;;;;;;;25.73;15.57;;;;;;;22.29;46.34;99412.59;4783514;29;20047;-78
2022/08/29 04:31:40;;;;;;;26.08;15.32;;;;;;;22.35;46.08;99419.34;4774855;29;20522;-79
2022/08/29 04:34:08;;;;;;;25.27;17.00;;;;;;;22.39;46.03;99412.91;4786811;29;20519;-79
2022/08/29 04:36:40;;;;;;;25.35;16.23;;;;;;;22.41;45.94;99410.97;4791423;29;20062;-79
2022/08/29 04:39:06;;;;;;;26.27;18.23;;;;;;;22.41;45.67;99398.59;4790780;29;20186;-79
2022/08/29 04:41:34;;;;;;;30.40;18.85;;;;;;;22.19;45.86;99407.06;4755932;29;20047;-79
2022/08/29 04:44:00;;;;;;;28.20;17.70;;;;;;;22.13;45.36;99394.22;4782339;29;20134;-78
2022/08/29 04:46:26;;;;;;;30.08;19.55;;;;;;;22.28;45.75;99405.63;4758390;29;20080;-79
2022/08/29 04:48:53;;;;;;;35.30;20.67;;;;;;;22.22;45.54;99400.72;4781153;29;20042;-78
2022/08/29 04:51:20;;;;;;;35.28;21.23;;;;;;;22.17;45.42;99430.16;4783998;29;20051;-79
2022/08/29 04:53:46;;;;;;;37.55;21.40;;;;;;;22.07;45.65;99439.63;4770041;29;20063;-79
2022/08/29 04:56:13;;;;;;;36.05;21.65;;;;;;;21.94;45.40;99410.41;4792890;29;20237;-79
2022/08/29 04:58:42;;;;;;;41.42;22.63;;;;;;;22.00;45.60;99425.06;4793418;29;20047;-77
2022/08/29 05:01:12;;;;;;;35.58;23.15;;;;;;;22.19;45.69;99415.00;4777808;29;20512;-79
2022/08/29 05:03:38;;;;;;;38.13;23.85;;;;;;;22.46;45.21;99405.44;4765486;29;20043;-77
2022/08/29 05:06:07;;;;;;;38.15;24.08;;;;;;;22.62;44.98;99422.03;4772586;29;20054;-79
2022/08/29 05:08:36;;;;;;;39.40;24.77;;;;;;;22.74;44.96;99409.78;4769705;29;20047;-79
2022/08/29 05:11:05;;;;;;;39.78;25.33;;;;;;;22.85;44.81;99387.84;4782101;29;20043;-79
2022/08/29 05:13:32;;;;;;;41.22;25.38;;;;;;;22.97;44.22;99399.44;4766732;29;20055;-80
2022/08/29 05:16:05;;;;;;;44.75;24.65;;;;;;;22.95;43.92;99396.03;4756608;29;20059;-81
2022/08/29 05:18:31;;;;;;;39.33;24.23;;;;;;;22.62;44.19;99384.91;4783515;29;20277;-80
2022/08/29 05:20:56;;;;;;;39.83;25.10;;;;;;;22.70;43.75;99408.28;4770515;29;20104;-78
2022/08/29 05:23:22;;;;;;;44.60;27.40;;;;;;;22.52;44.46;99389.97;4783205;29;20526;-78
2022/08/29 05:26:00;;;;;;;43.53;25.67;;;;;;;22.52;45.12;99405.88;4775056;29;20081;-80
2022/08/29 05:28:28;;;;;;;42.67;26.63;;;;;;;22.72;44.32;99395.75;4782761;29;20050;-79
2022/08/29 05:30:54;;;;;;;45.45;27.17;;;;;;;23.39;44.05;99397.50;4758410;29;20516;-81
2022/08/29 05:33:21;;;;;;;45.40;26.98;;;;;;;23.55;43.39;99392.00;4783801;29;20094;-81
2022/08/29 05:35:47;;;;;;;40.58;26.92;;;;;;;23.60;42.99;99394.31;4766438;29;20516;-81
2022/08/29 05:38:13;;;;;;;41.08;27.25;;;;;;;23.50;42.94;99387.97;4784775;29;20047;-80
2022/08/29 05:40:40;;;;;;;41.53;27.42;;;;;;;23.34;43.14;99386.34;4783082;29;20200;-78
2022/08/29 05:43:07;;;;;;;47.55;28.45;;;;;;;23.39;42.74;99400.16;4781307;29;20091;-79
2022/08/29 05:45:33;;;;;;;42.78;27.65;;;;;;;23.42;43.33;99410.56;4766176;29;20141;-79
2022/08/29 05:48:03;;;;;;;45.05;28.73;;;;;;;23.71;42.86;99410.38;4783022;29;20043;-79
2022/08/29 05:50:29;;;;;;;43.45;28.30;;;;;;;23.64;41.73;99395.81;4784615;29;20047;-80
2022/08/29 05:52:56;;;;;;;43.95;29.08;;;;;;;23.87;42.12;99372.09;4773619;29;20047;-79
2022/08/29 05:55:22;;;;;;;42.95;29.00;;;;;;;24.49;41.63;99331.31;4760563;29;20058;-82
2022/08/29 05:57:50;;;;;;;46.20;29.92;;;;;;;25.80;39.59;99372.84;4784312;29;20564;-78
2022/08/29 06:00:17;;;;;;;46.83;29.23;;;;;;;25.90;38.64;99356.97;4768895;29;20043;-81
2022/08/29 06:02:53;;;;;;;48.42;29.65;;;;;;;25.83;38.11;99358.41;4774457;29;20581;-79
2022/08/29 06:05:19;;;;;;;44.53;27.70;;;;;;;25.86;38.24;99358.16;4765356;29;20040;-81
2022/08/29 06:07:47;;;;;;;44.30;28.65;;;;;;;26.10;37.91;99358.03;4775955;29;20046;-81
2022/08/29 06:10:13;;;;;;;45.08;29.67;;;;;;;26.33;37.58;99373.13;4785648;29;20054;-80
2022/08/29 06:12:39;;;;;;;50.50;30.48;;;;;;;26.52;36.25;99375.16;4785874;29;20050;-79
2022/08/29 06:15:06;;;;;;;44.10;29.25;;;;;;;26.74;36.98;99393.75;4765737;29;20043;-81
2022/08/29 06:17:34;;;;;;;43.65;29.63;;;;;;;26.77;36.07;99392.63;4767191;29;20043;-79
2022/08/29 06:20:00;;;;;;;44.15;30.92;;;;;;;26.49;35.98;99389.56;4782558;29;20079;-80
2022/08/29 06:22:26;;;;;;;46.95;29.40;;;;;;;26.36;36.81;99396.91;4748683;29;20363;-82
2022/08/29 06:24:54;;;;;;;51.67;30.25;;;;;;;26.56;36.66;99360.59;4783162;29;20049;-83
2022/08/29 06:27:20;;;;;;;50.63;31.73;;;;;;;27.50;35.04;99386.56;4769565;29;20089;-80
2022/08/29 06:29:49;;;;;;;44.65;31.25;;;;;;;27.62;34.56;99340.09;4750358;29;20216;-79
2022/08/29 06:32:15;;;;;;;50.15;32.17;;;;;;;27.43;34.58;99343.47;4769938;29;20101;-81
2022/08/29 06:34:42;;;;;;;47.42;32.30;;;;;;;27.14;35.24;99343.34;4770354;29;20142;-80
2022/08/29 06:37:10;;;;;;;47.70;30.92;;;;;;;26.66;35.61;99369.50;4761905;29;20147;-80
2022/08/29 06:39:36;;;;;;;46.30;29.83;;;;;;;26.23;35.98;99365.91;4780228;29;20134;-80
2022/08/29 06:42:02;;;;;;;42.10;29.48;;;;;;;26.02;36.65;99371.13;4783775;29;20044;-80
2022/08/29 06:44:30;;;;;;;48.00;29.95;;;;;;;25.81;37.00;99369.19;4787252;29;20077;-81
2022/08/29 06:46:57;;;;;;;42.25;28.60;;;;;;;25.59;37.04;99379.84;4771465;29;20070;-81
2022/08/29 06:49:23;;;;;;;45.38;28.55;;;;;;;25.49;37.37;99367.25;4788039;29;20101;-82
2022/08/29 06:51:53;;;;;;;41.67;27.85;;;;;;;25.71;37.29;99376.22;4767716;29;20039;-80
2022/08/29 06:54:22;;;;;;;41.90;26.90;;;;;;;27.50;36.80;99362.50;4776457;29;20047;-80
2022/08/29 06:56:49;;;;;;;41.72;26.83;;;;;;;28.68;34.61;99357.47;4779484;29;20312;-80
2022/08/29 06:59:16;;;;;;;38.63;26.02;;;;;;;28.61;33.39;99359.00;4785027;29;20062;-80
2022/08/29 07:01:43;;;;;;;34.22;23.95;;;;;;;28.93;32.74;99360.59;4754722;29;20081;-81
2022/08/29 07:04:10;;;;;;;33.75;20.92;;;;;;;29.67;31.23;99350.97;4786361;29;20039;-81
2022/08/29 07:06:37;;;;;;;31.67;19.35;;;;;;;30.17;29.70;99356.91;4768337;29;20047;-80
2022/08/29 07:09:04;;;;;;;29.80;19.73;;;;;;;30.66;29.26;99345.84;4782965;29;20051;-82
2022/08/29 07:11:32;;;;;;;25.90;17.58;;;;;;;31.62;27.17;99360.25;4782684;29;20047;-80
2022/08/29 07:14:03;;;;;;;28.27;16.75;;;;;;;31.65;26.34;99356.41;4785667;29;20043;-82
2022/08/29 07:16:39;;;;;;;26.08;15.57;;;;;;;32.36;26.11;99345.41;4780767;29;20043;-80
2022/08/29 07:19:09;;;;;;;27.02;15.40;;;;;;;32.56;25.54;99354.00;4748736;29;20055;-79
2022/08/29 07:21:36;;;;;;;21.67;14.13;;;;;;;33.33;24.54;99356.31;4782965;29;20064;-82
2022/08/29 07:24:03;;;;;;;30.60;14.48;;;;;;;33.59;24.27;99371.44;4768603;29;20069;-82
2022/08/29 07:26:40;;;;;;;21.45;13.38;;;;;;;33.68;23.53;99374.94;4784223;29;20047;-79
2022/08/29 07:29:19;;;;;;;17.98;12.23;;;;;;;33.71;23.37;99371.91;4783088;29;20442;-81
2022/08/29 07:31:48;;;;;;;21.52;13.15;;;;;;;34.26;23.33;99336.88;4787415;29;20077;-79
2022/08/29 07:34:20;;;;;;;16.35;11.15;;;;;;;35.25;22.47;99333.38;4771380;29;20068;-81
2022/08/29 07:36:49;;;;;;;16.33;11.23;;;;;;;36.67;20.93;99360.25;4764449;29;20142;-78
2022/08/29 07:39:21;;;;;;;17.48;9.90;;;;;;;36.78;20.07;99369.72;4792066;29;20145;-79
2022/08/29 07:41:48;;;;;;;15.68;9.80;;;;;;;36.92;19.83;99349.84;4772420;29;20047;-81
2022/08/29 07:44:15;;;;;;;17.17;8.55;;;;;;;37.50;19.69;99364.25;4788619;29;20051;-80
2022/08/29 07:46:42;;;;;;;16.50;8.05;;;;;;;37.94;18.24;99364.88;4785785;29;20043;-81
2022/08/29 07:49:10;;;;;;;11.93;7.97;;;;;;;36.66;19.31;99353.16;4768520;29;20074;-83
2022/08/29 07:51:39;;;;;;;13.00;7.00;;;;;;;35.53;20.20;99364.34;4774275;29;20047;-81
2022/08/29 07:54:09;;;;;;;10.68;5.97;;;;;;;35.41;20.87;99340.47;4768794;29;20712;-82
2022/08/29 07:56:41;;;;;;;14.77;6.10;;;;;;;36.21;19.67;99360.63;4787221;29;20516;-79
2022/08/29 07:59:10;;;;;;;15.57;5.78;;;;;;;36.50;19.78;99345.31;4772330;29;20047;-79
2022/08/29 08:01:38;;;;;;;10.43;5.43;;;;;;;36.60;20.02;99362.91;4771515;29;20043;-79
2022/08/29 08:04:11;;;;;;;12.75;5.35;;;;;;;36.55;19.94;99370.78;4772589;30;20048;-78
2022/08/29 08:06:45;;;;;;;16.90;4.88;;;;;;;36.23;19.59;99375.66;4765432;30;20081;-80
2022/08/29 08:09:14;;;;;;;15.32;5.15;;;;;;;36.11;19.74;99350.09;4802898;29;20047;-80
2022/08/29 08:11:44;;;;;;;14.48;4.55;;;;;;;34.41;21.10;99336.97;4801752;29;20047;-80
2022/08/29 08:14:21;;;;;;;15.82;4.30;;;;;;;34.03;21.84;99361.16;4803100;29;20043;-81
2022/08/29 08:16:50;;;;;;;13.73;3.90;;;;;;;34.21;21.82;99318.53;4805426;29;20102;-79
2022/08/29 08:19:20;;;;;;;15.07;4.40;;;;;;;34.57;21.42;99376.53;4772644;30;20056;-81
2022/08/29 08:21:49;;;;;;;11.73;4.60;;;;;;;34.73;21.85;99351.25;4791076;29;20512;-82
2022/08/29 08:24:22;;;;;;;13.10;4.50;;;;;;;34.44;22.18;99362.78;4790356;29;20054;-80
2022/08/29 08:26:48;;;;;;;11.40;3.60;;;;;;;34.32;22.25;99382.06;4790935;29;20051;-83
2022/08/29 08:29:14;;;;;;;14.35;4.57;;;;;;;34.39;22.80;99350.66;4750828;29;20060;-83
2022/08/29 08:31:43;;;;;;;9.32;3.97;;;;;;;35.67;21.66;99362.69;4783420;29;20067;-82
2022/08/29 08:34:14;;;;;;;;;;;;;;;35.87;21.69;99380.00;4770396;29;20557;-80
2022/08/29 08:36:43;;;;;;;15.60;5.00;;;;;;;35.29;21.98;99388.75;4791521;29;19975;-81
2022/08/29 08:39:12;;;;;;;15.60;3.55;;;;;;;35.04;22.05;99403.53;4776251;29;20104;-80
2022/08/29 08:41:54;;;;;;;10.68;3.80;;;;;;;34.17;23.23;99370.38;4784778;29;20157;-81
2022/08/29 08:44:46;;;;;;;12.45;3.65;;;;;;;33.42;23.98;99381.44;4762838;29;20051;-81
2022/08/29 08:47:42;;;;;;;13.75;3.67;;;;;;;33.26;24.80;99373.34;4784609;29;20573;-86
2022/08/29 08:51:03;;;;;;;14.07;4.32;;;;;;;32.79;25.12;99399.09;4775955;29;20152;-83
2022/08/29 08:53:43;;;;;;;10.95;3.75;;;;;;;32.19;25.18;99342.66;4754960;29;20055;-85
2022/08/29 08:56:57;;;;;;;12.82;3.67;;;;;;;31.63;25.79;99374.56;4791424;29;20199;-80
2022/08/29 09:03:36;;;;;;;9.50;3.05;;;;;;;30.34;28.09;99404.38;4768710;29;20047;-84
2022/08/29 09:06:48;;;;;;;13.27;4.07;;;;;;;29.53;29.28;99365.69;4768284;29;20122;-83
2022/08/29 09:09:37;;;;;;;8.57;3.33;;;;;;;29.66;29.33;99396.66;4775263;30;20043;-79
2022/08/29 09:12:37;;;;;;;11.30;3.78;;;;;;;29.50;29.29;99344.53;4768126;30;20082;-82
2022/08/29 09:15:11;;;;;;;13.95;3.75;;;;;;;30.63;29.30;99389.09;4765288;30;20106;-82
2022/08/29 09:17:47;;;;;;;9.82;3.38;;;;;;;31.35;28.69;99369.34;4774725;29;20393;-83
2022/08/29 09:20:34;;;;;;;11.20;3.38;;;;;;;31.67;27.68;99306.84;4790138;29;20043;-85
2022/08/29 09:23:28;;;;;;;10.05;3.95;;;;;;;33.68;25.83;99347.97;4776081;29;20053;-83
2022/08/29 09:25:56;;;;;;;14.05;4.30;;;;;;;34.96;24.33;99364.75;4756551;30;20052;-82
2022/08/29 09:28:29;;;;;;;10.77;4.32;;;;;;;36.01;22.60;99326.91;4769719;29;20051;-83
2022/08/29 09:31:27;;;;;;;15.15;5.10;;;;;;;36.70;22.14;99361.75;4791062;29;20047;-84
2022/08/29 09:34:09;;;;;;;11.20;3.60;;;;;;;36.17;22.16;99320.41;4759567;30;20078;-81
2022/08/29 09:40:17;;;;;;;11.85;3.67;;;;;;;36.66;22.16;99360.47;4744231;30;20534;-83
2022/08/29 09:43:51;;;;;;;6.97;3.42;;;;;;;36.43;21.84;99323.56;4748965;29;20111;-80
2022/08/29 09:46:24;;;;;;;7.80;3.83;;;;;;;36.81;22.43;99350.38;4742244;30;20113;-82
2022/08/29 09:48:59;;;;;;;17.60;4.43;;;;;;;38.08;21.09;99374.72;4756822;29;20051;-82
2022/08/29 09:51:27;;;;;;;13.95;4.40;;;;;;;38.12;20.72;99364.31;4758905;30;20079;-81
2022/08/29 09:54:15;;;;;;;10.80;4.38;;;;;;;37.53;20.64;99380.97;4769231;29;20043;-86
2022/08/29 09:57:10;;;;;;;15.75;4.50;;;;;;;37.79;19.46;99406.56;4790699;29;20051;-81
2022/08/29 10:00:08;;;;;;;12.77;4.78;;;;;;;36.96;20.04;99371.19;4781567;29;20516;-82
2022/08/29 10:03:03;;;;;;;19.85;7.28;;;;;;;37.13;20.59;99380.69;4771423;29;20465;-81
2022/08/29 10:05:34;;;;;;;15.52;5.30;;;;;;;37.63;20.02;99379.75;4788939;29;20520;-79
2022/08/29 10:08:04;;;;;;;10.10;4.10;;;;;;;36.67;20.45;99403.59;4792778;29;20051;-82
2022/08/29 10:10:34;;;;;;;;;;;;;;;35.09;21.92;99374.09;4789169;29;20035;-80
2022/08/29 10:13:23;;;;;;;12.18;4.53;;;;;;;35.01;22.25;99399.31;4788146;29;20535;-79
2022/08/29 10:16:00;;;;;;;11.50;4.28;;;;;;;34.29;22.83;99333.00;4771870;30;20520;-82
2022/08/29 10:18:32;;;;;;;15.30;4.35;;;;;;;33.72;23.36;99372.72;4779838;29;20043;-81
2022/08/29 10:21:17;;;;;;;16.10;4.65;;;;;;;32.82;23.98;99396.06;4788102;29;20061;-78
2022/08/29 10:23:54;;;;;;;15.88;4.03;;;;;;;31.65;25.36;99427.16;4785669;29;20070;-80
2022/08/29 10:26:47;;;;;;;20.48;5.30;;;;;;;31.14;26.74;99397.44;4773924;30;20209;-80
2022/08/29 10:29:28;;;;;;;15.93;5.30;;;;;;;32.20;25.69;99402.69;4785229;29;20134;-80
2022/08/29 10:32:24;;;;;;;13.50;4.50;;;;;;;32.99;25.46;99387.00;4762503;29;20091;-81
2022/08/29 10:35:18;;;;;;;14.77;4.30;;;;;;;32.64;24.85;99415.94;4745091;30;20056;-81
2022/08/29 10:38:19;;;;;;;10.88;4.40;;;;;;;31.88;26.72;99428.47;4766281;29;20043;-81
2022/08/29 10:40:54;;;;;;;13.40;4.47;;;;;;;31.97;25.89;99417.59;4788392;29;20039;-82
2022/08/29 10:43:38;;;;;;;12.68;4.10;;;;;;;31.82;26.37;99411.97;4752741;29;20138;-83
2022/08/29 10:46:23;;;;;;;15.45;4.75;;;;;;;31.40;26.88;99402.81;4789323;29;20074;-80
2022/08/29 10:49:00;;;;;;;13.13;3.55;;;;;;;31.29;26.74;99411.16;4790714;29;20058;-88
2022/08/29 10:51:46;;;;;;;13.80;3.90;;;;;;;31.18;27.47;99401.50;4759011;29;20492;-79
2022/08/29 10:54:18;;;;;;;13.75;3.50;;;;;;;30.74;27.73;99445.22;4771673;29;20074;-79
2022/08/29 10:56:47;;;;;;;10.45;4.00;;;;;;;30.40;28.53;99432.47;4789015;29;20058;-81
2022/08/29 10:59:29;;;;;;;13.70;3.55;;;;;;;29.67;29.36;99434.06;4790278;29;20047;-83
2022/08/29 11:02:08;;;;;;;13.82;3.47;;;;;;;28.88;30.28;99398.50;4772381;29;20111;-81
2022/08/29 11:04:44;;;;;;;9.23;3.30;;;;;;;28.42;30.83;99483.75;4784495;29;20040;-84
2022/08/29 11:07:27;;;;;;;17.55;3.97;;;;;;;27.94;31.57;99403.19;4790720;29;20053;-79
2022/08/29 11:10:02;;;;;;;18.17;4.45;;;;;;;27.49;32.13;99433.81;4776763;29;20478;-83
2022/08/29 11:12:44;;;;;;;13.23;3.42;;;;;;;27.43;33.27;99481.53;4768004;29;20073;-80
2022/08/29 11:15:44;;;;;;;8.43;3.33;;;;;;;27.12;33.89;99433.38;4767618;29;20520;-78
2022/08/29 11:18:36;;;;;;;11.13;3.95;;;;;;;27.26;33.69;99475.78;4782506;29;20576;-81
2022/08/29 11:21:33;;;;;;;11.90;3.75;;;;;;;27.14;33.94;99455.47;4770215;29;20061;-82
2022/08/29 11:24:02;;;;;;;13.05;3.60;;;;;;;27.23;34.39;99446.69;4787666;29;20055;-81
2022/08/29 11:26:43;;;;;;;9.82;3.65;;;;;;;27.33;34.58;99452.94;4765376;29;20649;-79
2022/08/29 11:29:42;;;;;;;12.55;3.55;;;;;;;27.31;34.76;99456.72;4786948;29;20054;-81
2022/08/29 11:32:27;;;;;;;16.77;4.03;;;;;;;27.06;34.86;99446.25;4784443;29;21492;-81
2022/08/29 11:35:03;;;;;;;11.88;4.32;;;;;;;27.02;35.38;99465.34;4788960;29;20043;-82
2022/08/29 11:37:37;;;;;;;18.33;4.90;;;;;;;26.84;35.67;99449.91;4784426;29;20051;-79
2022/08/29 11:40:22;;;;;;;11.35;4.00;;;;;;;26.79;36.16;99484.06;4786481;29;20074;-80
2022/08/29 11:42:50;;;;;;;8.50;3.50;;;;;;;26.58;36.82;99468.03;4784272;29;20043;-81
2022/08/29 11:45:31;;;;;;;11.25;4.18;;;;;;;26.45;36.98;99481.50;4763301;29;20080;-80
2022/08/29 11:48:16;;;;;;;16.67;3.50;;;;;;;26.43;36.65;99462.94;4773905;29;20096;-80
2022/08/29 11:50:43;;;;;;;12.85;3.95;;;;;;;26.47;36.98;99474.22;4767352;29;20051;-81
2022/08/29 11:53:32;;;;;;;14.48;4.00;;;;;;;26.43;37.04;99476.28;4767455;29;20508;-81
2022/08/29 11:56:14;;;;;;;9.73;3.75;;;;;;;26.52;37.35;99463.19;4792716;29;21388;-81
2022/08/29 11:58:55;;;;;;;15.30;4.00;;;;;;;26.60;37.23;99463.38;4792018;29;20401;-82